sensor_id;sensor_type;location;lat;lon;timestamp;pressure;altitude;pressure_sealevel;temperature;humidity
19761;BME280;10039;42.632;23.408;2023-05-07T00:02:12;95217.63;;;12.56;68.08
19761;BME280;10039;42.632;23.408;2023-05-07T00:04:38;95212.97;;;12.60;67.82
19761;BME280;10039;42.632;23.408;2023-05-07T00:07:04;95207.84;;;12.50;67.42
19761;BME280;10039;42.632;23.408;2023-05-07T00:09:29;95224.06;;;12.59;67.66
19761;BME280;10039;42.632;23.408;2023-05-07T00:11:55;95228.50;;;12.49;68.59
19761;BME280;10039;42.632;23.408;2023-05-07T00:14:21;95222.34;;;12.68;67.85
19761;BME280;10039;42.632;23.408;2023-05-07T00:16:46;95228.78;;;12.71;67.67
19761;BME280;10039;42.632;23.408;2023-05-07T00:19:12;95233.44;;;12.67;67.31
19761;BME280;10039;42.632;23.408;2023-05-07T00:21:37;95202.78;;;12.36;68.07
19761;BME280;10039;42.632;23.408;2023-05-07T00:24:03;95196.22;;;12.40;67.48
19761;BME280;10039;42.632;23.408;2023-05-07T00:26:29;95219.81;;;12.61;67.90
19761;BME280;10039;42.632;23.408;2023-05-07T00:28:55;95205.06;;;12.53;67.74
19761;BME280;10039;42.632;23.408;2023-05-07T00:31:20;95203.47;;;12.40;67.37
19761;BME280;10039;42.632;23.408;2023-05-07T00:33:45;95233.69;;;12.56;67.98
19761;BME280;10039;42.632;23.408;2023-05-07T00:36:11;95227.59;;;12.56;67.90
19761;BME280;10039;42.632;23.408;2023-05-07T00:38:37;95235.34;;;12.50;67.73
19761;BME280;10039;42.632;23.408;2023-05-07T00:41:02;95229.34;;;12.27;68.06
19761;BME280;10039;42.632;23.408;2023-05-07T00:43:28;95234.19;;;12.16;69.05
19761;BME280;10039;42.632;23.408;2023-05-07T00:45:54;95213.50;;;11.81;69.55
19761;BME280;10039;42.632;23.408;2023-05-07T00:48:20;95224.59;;;11.99;69.71
19761;BME280;10039;42.632;23.408;2023-05-07T00:50:45;95230.97;;;12.05;69.80
19761;BME280;10039;42.632;23.408;2023-05-07T00:53:12;95208.50;;;11.83;69.79
19761;BME280;10039;42.632;23.408;2023-05-07T00:55:38;95231.88;;;11.99;69.73
19761;BME280;10039;42.632;23.408;2023-05-07T00:58:03;95236.47;;;11.98;69.58
19761;BME280;10039;42.632;23.408;2023-05-07T01:00:29;95235.13;;;11.90;70.14
19761;BME280;10039;42.632;23.408;2023-05-07T01:02:55;95206.44;;;11.71;69.55
19761;BME280;10039;42.632;23.408;2023-05-07T01:05:22;95235.13;;;11.90;69.61
19761;BME280;10039;42.632;23.408;2023-05-07T01:07:49;95221.66;;;11.74;70.17
19761;BME280;10039;42.632;23.408;2023-05-07T01:10:15;95242.59;;;11.99;69.46
19761;BME280;10039;42.632;23.408;2023-05-07T01:12:43;95247.72;;;12.09;69.16
19761;BME280;10039;42.632;23.408;2023-05-07T01:15:10;95228.59;;;11.91;69.42
19761;BME280;10039;42.632;23.408;2023-05-07T01:17:36;95224.59;;;11.99;68.70
19761;BME280;10039;42.632;23.408;2023-05-07T01:20:01;95239.47;;;12.00;69.55
19761;BME280;10039;42.632;23.408;2023-05-07T01:22:31;95242.22;;;11.77;70.31
19761;BME280;10039;42.632;23.408;2023-05-07T01:24:58;95237.38;;;11.49;71.56
19761;BME280;10039;42.632;23.408;2023-05-07T01:27:25;95235.19;;;11.44;71.56
19761;BME280;10039;42.632;23.408;2023-05-07T01:29:50;95215.31;;;11.45;71.81
19761;BME280;10039;42.632;23.408;2023-05-07T01:32:18;95228.84;;;11.58;71.95
19761;BME280;10039;42.632;23.408;2023-05-07T01:34:48;95222.03;;;11.53;71.46
19761;BME280;10039;42.632;23.408;2023-05-07T01:37:15;95223.69;;;11.47;72.77
19761;BME280;10039;42.632;23.408;2023-05-07T01:39:42;95199.53;;;11.31;72.43
19761;BME280;10039;42.632;23.408;2023-05-07T01:42:07;95197.53;;;11.35;72.23
19761;BME280;10039;42.632;23.408;2023-05-07T01:44:33;95205.31;;;11.49;72.42
19761;BME280;10039;42.632;23.408;2023-05-07T01:46:58;95199.09;;;11.56;71.59
19761;BME280;10039;42.632;23.408;2023-05-07T01:49:25;95201.38;;;11.57;71.26
19761;BME280;10039;42.632;23.408;2023-05-07T01:51:51;95174.84;;;11.47;71.61
19761;BME280;10039;42.632;23.408;2023-05-07T01:54:16;95218.94;;;11.78;71.35
19761;BME280;10039;42.632;23.408;2023-05-07T01:56:42;95215.72;;;11.86;71.03
19761;BME280;10039;42.632;23.408;2023-05-07T01:59:07;95202.59;;;11.72;70.96
19761;BME280;10039;42.632;23.408;2023-05-07T02:01:33;95200.00;;;11.88;70.72
19761;BME280;10039;42.632;23.408;2023-05-07T02:03:58;95203.97;;;12.00;71.00
19761;BME280;10039;42.632;23.408;2023-05-07T02:06:23;95198.75;;;11.93;71.42
19761;BME280;10039;42.632;23.408;2023-05-07T02:08:49;95207.03;;;11.98;71.30
19761;BME280;10039;42.632;23.408;2023-05-07T02:11:14;95206.63;;;12.00;70.42
19761;BME280;10039;42.632;23.408;2023-05-07T02:13:41;95199.78;;;11.99;69.96
19761;BME280;10039;42.632;23.408;2023-05-07T02:16:06;95194.00;;;12.00;70.47
19761;BME280;10039;42.632;23.408;2023-05-07T02:18:32;95153.97;;;11.61;70.53
19761;BME280;10039;42.632;23.408;2023-05-07T02:20:57;95169.00;;;11.71;70.52
19761;BME280;10039;42.632;23.408;2023-05-07T02:23:23;95173.06;;;11.79;71.05
19761;BME280;10039;42.632;23.408;2023-05-07T02:25:48;95185.94;;;11.84;71.47
19761;BME280;10039;42.632;23.408;2023-05-07T02:28:14;95155.34;;;11.46;71.19
19761;BME280;10039;42.632;23.408;2023-05-07T02:30:40;95165.00;;;11.40;71.91
19761;BME280;10039;42.632;23.408;2023-05-07T02:33:05;95189.88;;;11.37;72.47
19761;BME280;10039;42.632;23.408;2023-05-07T02:35:32;95173.16;;;11.14;73.22
19761;BME280;10039;42.632;23.408;2023-05-07T02:37:57;95197.66;;;11.51;72.21
19761;BME280;10039;42.632;23.408;2023-05-07T02:40:23;95204.50;;;11.52;71.90
19761;BME280;10039;42.632;23.408;2023-05-07T02:42:51;95187.84;;;11.45;72.18
19761;BME280;10039;42.632;23.408;2023-05-07T02:45:16;95192.28;;;11.51;72.16
19761;BME280;10039;42.632;23.408;2023-05-07T02:47:42;95194.97;;;11.51;71.70
19761;BME280;10039;42.632;23.408;2023-05-07T02:50:07;95197.69;;;11.71;71.24
19761;BME280;10039;42.632;23.408;2023-05-07T02:52:33;95198.06;;;11.69;71.41
19761;BME280;10039;42.632;23.408;2023-05-07T02:54:58;95156.38;;;11.52;70.97
19761;BME280;10039;42.632;23.408;2023-05-07T02:57:24;95191.81;;;11.95;70.35
19761;BME280;10039;42.632;23.408;2023-05-07T02:59:49;95194.50;;;11.95;69.74
19761;BME280;10039;42.632;23.408;2023-05-07T03:02:15;95167.84;;;11.72;70.13
19761;BME280;10039;42.632;23.408;2023-05-07T03:04:41;95184.66;;;11.92;70.02
19761;BME280;10039;42.632;23.408;2023-05-07T03:07:06;95195.50;;;12.01;70.03
19761;BME280;10039;42.632;23.408;2023-05-07T03:09:32;95195.84;;;12.03;69.63
19761;BME280;10039;42.632;23.408;2023-05-07T03:11:57;95207.59;;;11.90;70.95
19761;BME280;10039;42.632;23.408;2023-05-07T03:14:23;95195.06;;;11.67;71.79
19761;BME280;10039;42.632;23.408;2023-05-07T03:16:49;95211.03;;;11.71;72.23
19761;BME280;10039;42.632;23.408;2023-05-07T03:19:15;95183.44;;;11.35;73.09
19761;BME280;10039;42.632;23.408;2023-05-07T03:21:40;95216.91;;;11.43;73.82
19761;BME280;10039;42.632;23.408;2023-05-07T03:24:05;95209.84;;;11.52;73.98
19761;BME280;10039;42.632;23.408;2023-05-07T03:26:31;95210.66;;;11.49;73.13
19761;BME280;10039;42.632;23.408;2023-05-07T03:28:56;95214.31;;;11.59;73.79
19761;BME280;10039;42.632;23.408;2023-05-07T03:31:22;95215.00;;;11.63;73.58
19761;BME280;10039;42.632;23.408;2023-05-07T03:33:56;95210.09;;;11.61;73.97
19761;BME280;10039;42.632;23.408;2023-05-07T03:36:22;95215.75;;;11.63;74.07
19761;BME280;10039;42.632;23.408;2023-05-07T03:38:48;95214.59;;;11.64;74.37
19761;BME280;10039;42.632;23.408;2023-05-07T03:41:14;95212.81;;;11.77;73.98
19761;BME280;10039;42.632;23.408;2023-05-07T03:43:39;95211.66;;;11.78;73.70
19761;BME280;10039;42.632;23.408;2023-05-07T03:46:05;95213.09;;;11.83;73.38
19761;BME280;10039;42.632;23.408;2023-05-07T03:48:30;95217.47;;;11.73;74.57
19761;BME280;10039;42.632;23.408;2023-05-07T03:50:57;95225.72;;;11.63;75.85
19761;BME280;10039;42.632;23.408;2023-05-07T03:53:23;95205.84;;;11.41;75.60
19761;BME280;10039;42.632;23.408;2023-05-07T03:55:48;95202.94;;;11.55;73.71
19761;BME280;10039;42.632;23.408;2023-05-07T03:58:14;95240.31;;;11.58;73.41
19761;BME280;10039;42.632;23.408;2023-05-07T04:00:40;95216.13;;;11.42;74.12
19761;BME280;10039;42.632;23.408;2023-05-07T04:03:06;95189.69;;;11.28;73.81
19761;BME280;10039;42.632;23.408;2023-05-07T04:05:32;95244.34;;;11.66;73.25
19761;BME280;10039;42.632;23.408;2023-05-07T04:07:58;95216.25;;;11.58;72.96
19761;BME280;10039;42.632;23.408;2023-05-07T04:10:23;95229.94;;;11.80;72.71
19761;BME280;10039;42.632;23.408;2023-05-07T04:12:49;95220.38;;;11.82;72.02
19761;BME280;10039;42.632;23.408;2023-05-07T04:15:14;95237.16;;;12.02;72.02
19761;BME280;10039;42.632;23.408;2023-05-07T04:17:40;95240.94;;;12.05;72.52
19761;BME280;10039;42.632;23.408;2023-05-07T04:20:09;95249.13;;;12.14;72.13
19761;BME280;10039;42.632;23.408;2023-05-07T04:22:36;95232.75;;;12.12;71.42
19761;BME280;10039;42.632;23.408;2023-05-07T04:25:02;95231.78;;;12.22;71.72
19761;BME280;10039;42.632;23.408;2023-05-07T04:27:27;95261.53;;;12.43;72.50
19761;BME280;10039;42.632;23.408;2023-05-07T04:29:55;95243.53;;;12.43;72.25
19761;BME280;10039;42.632;23.408;2023-05-07T04:32:21;95260.72;;;12.62;72.77
19761;BME280;10039;42.632;23.408;2023-05-07T04:34:47;95240.22;;;12.39;73.00
19761;BME280;10039;42.632;23.408;2023-05-07T04:37:13;95273.66;;;12.83;72.22
19761;BME280;10039;42.632;23.408;2023-05-07T04:39:38;95278.47;;;12.91;72.39
19761;BME280;10039;42.632;23.408;2023-05-07T04:42:03;95274.84;;;12.98;71.82
19761;BME280;10039;42.632;23.408;2023-05-07T04:44:29;95282.09;;;13.17;71.67
19761;BME280;10039;42.632;23.408;2023-05-07T04:46:57;95278.72;;;13.29;71.37
19761;BME280;10039;42.632;23.408;2023-05-07T04:49:23;95281.56;;;13.38;71.28
19761;BME280;10039;42.632;23.408;2023-05-07T04:51:48;95290.16;;;13.61;70.51
19761;BME280;10039;42.632;23.408;2023-05-07T04:54:16;95262.97;;;13.46;70.45
19761;BME280;10039;42.632;23.408;2023-05-07T04:56:42;95272.97;;;13.74;70.04
19761;BME280;10039;42.632;23.408;2023-05-07T04:59:07;95268.81;;;13.86;69.76
19761;BME280;10039;42.632;23.408;2023-05-07T05:01:33;95274.84;;;13.90;69.44
19761;BME280;10039;42.632;23.408;2023-05-07T05:03:58;95277.84;;;14.20;69.38
19761;BME280;10039;42.632;23.408;2023-05-07T05:06:25;95244.31;;;14.12;68.97
19761;BME280;10039;42.632;23.408;2023-05-07T05:08:50;95241.81;;;14.34;68.11
19761;BME280;10039;42.632;23.408;2023-05-07T05:11:16;95272.13;;;14.71;67.42
19761;BME280;10039;42.632;23.408;2023-05-07T05:13:41;95260.75;;;14.67;67.68
19761;BME280;10039;42.632;23.408;2023-05-07T05:16:06;95271.19;;;14.78;67.39
19761;BME280;10039;42.632;23.408;2023-05-07T05:18:32;95246.78;;;14.72;66.85
19761;BME280;10039;42.632;23.408;2023-05-07T05:20:57;95272.56;;;15.07;66.86
19761;BME280;10039;42.632;23.408;2023-05-07T05:23:23;95259.03;;;15.11;66.35
19761;BME280;10039;42.632;23.408;2023-05-07T05:25:48;95260.94;;;15.23;66.77
19761;BME280;10039;42.632;23.408;2023-05-07T05:28:14;95269.53;;;15.43;65.92
19761;BME280;10039;42.632;23.408;2023-05-07T05:30:39;95245.53;;;15.48;65.00
19761;BME280;10039;42.632;23.408;2023-05-07T05:33:05;95272.13;;;15.80;64.71
19761;BME280;10039;42.632;23.408;2023-05-07T05:35:30;95279.50;;;15.88;64.45
19761;BME280;10039;42.632;23.408;2023-05-07T05:37:57;95254.47;;;15.79;64.42
19761;BME280;10039;42.632;23.408;2023-05-07T05:40:22;95267.88;;;16.13;64.04
19761;BME280;10039;42.632;23.408;2023-05-07T05:42:47;95262.56;;;16.22;62.90
19761;BME280;10039;42.632;23.408;2023-05-07T05:45:13;95275.91;;;16.25;63.52
19761;BME280;10039;42.632;23.408;2023-05-07T05:47:38;95260.78;;;16.40;62.69
19761;BME280;10039;42.632;23.408;2023-05-07T05:50:06;95261.25;;;16.48;62.71
19761;BME280;10039;42.632;23.408;2023-05-07T05:52:31;95268.38;;;16.63;62.14
19761;BME280;10039;42.632;23.408;2023-05-07T05:54:57;95235.75;;;16.40;61.47
19761;BME280;10039;42.632;23.408;2023-05-07T05:57:22;95268.53;;;16.69;62.10
19761;BME280;10039;42.632;23.408;2023-05-07T05:59:48;95276.22;;;16.79;62.00
19761;BME280;10039;42.632;23.408;2023-05-07T06:02:14;95274.38;;;16.67;61.21
19761;BME280;10039;42.632;23.408;2023-05-07T06:04:39;95271.72;;;16.76;62.20
19761;BME280;10039;42.632;23.408;2023-05-07T06:07:05;95275.13;;;17.07;62.03
19761;BME280;10039;42.632;23.408;2023-05-07T06:09:30;95283.72;;;17.23;60.22
19761;BME280;10039;42.632;23.408;2023-05-07T06:11:56;95276.78;;;17.44;61.06
19761;BME280;10039;42.632;23.408;2023-05-07T06:14:21;95245.59;;;17.43;59.80
19761;BME280;10039;42.632;23.408;2023-05-07T06:16:46;95284.31;;;17.76;59.47
19761;BME280;10039;42.632;23.408;2023-05-07T06:19:12;95272.31;;;17.77;59.06
19761;BME280;10039;42.632;23.408;2023-05-07T06:21:38;95273.53;;;17.85;59.00
19761;BME280;10039;42.632;23.408;2023-05-07T06:24:04;95277.00;;;18.12;59.29
19761;BME280;10039;42.632;23.408;2023-05-07T06:26:30;95269.94;;;18.32;58.25
19761;BME280;10039;42.632;23.408;2023-05-07T06:28:55;95263.00;;;18.58;57.26
19761;BME280;10039;42.632;23.408;2023-05-07T06:31:21;95262.03;;;18.70;56.82
19761;BME280;10039;42.632;23.408;2023-05-07T06:33:47;95261.94;;;18.56;56.45
19761;BME280;10039;42.632;23.408;2023-05-07T06:36:13;95257.59;;;18.49;56.48
19761;BME280;10039;42.632;23.408;2023-05-07T06:38:41;95259.34;;;18.70;57.47
19761;BME280;10039;42.632;23.408;2023-05-07T06:41:07;95234.47;;;18.48;57.52
19761;BME280;10039;42.632;23.408;2023-05-07T06:43:32;95230.88;;;18.93;56.06
19761;BME280;10039;42.632;23.408;2023-05-07T06:45:58;95257.78;;;19.28;55.54
19761;BME280;10039;42.632;23.408;2023-05-07T06:48:23;95248.44;;;19.29;54.99
19761;BME280;10039;42.632;23.408;2023-05-07T06:50:49;95239.53;;;19.38;56.01
19761;BME280;10039;42.632;23.408;2023-05-07T06:53:15;95209.47;;;19.36;54.38
19761;BME280;10039;42.632;23.408;2023-05-07T06:55:40;95210.22;;;19.04;54.09
19761;BME280;10039;42.632;23.408;2023-05-07T06:58:06;95223.22;;;19.47;54.15
19761;BME280;10039;42.632;23.408;2023-05-07T07:00:32;95230.13;;;19.71;54.35
19761;BME280;10039;42.632;23.408;2023-05-07T07:02:57;95235.84;;;20.11;53.66
19761;BME280;10039;42.632;23.408;2023-05-07T07:05:24;95234.00;;;20.32;51.65
19761;BME280;10039;42.632;23.408;2023-05-07T07:07:49;95197.53;;;20.18;53.24
19761;BME280;10039;42.632;23.408;2023-05-07T07:10:21;95230.06;;;20.18;51.58
19761;BME280;10039;42.632;23.408;2023-05-07T07:12:48;95230.66;;;20.36;51.93
19761;BME280;10039;42.632;23.408;2023-05-07T07:15:14;95224.09;;;20.29;51.70
19761;BME280;10039;42.632;23.408;2023-05-07T07:17:39;95225.13;;;20.17;52.47
19761;BME280;10039;42.632;23.408;2023-05-07T07:20:05;95225.78;;;20.55;52.52
19761;BME280;10039;42.632;23.408;2023-05-07T07:22:31;95223.28;;;20.80;51.30
19761;BME280;10039;42.632;23.408;2023-05-07T07:24:56;95226.59;;;21.04;50.53
19761;BME280;10039;42.632;23.408;2023-05-07T07:27:22;95218.97;;;21.23;50.64
19761;BME280;10039;42.632;23.408;2023-05-07T07:29:47;95213.69;;;21.34;49.65
19761;BME280;10039;42.632;23.408;2023-05-07T07:32:13;95189.69;;;21.32;48.44
19761;BME280;10039;42.632;23.408;2023-05-07T07:37:04;95228.00;;;21.34;48.96
19761;BME280;10039;42.632;23.408;2023-05-07T07:39:34;95207.59;;;21.04;49.79
19761;BME280;10039;42.632;23.408;2023-05-07T07:42:00;95226.56;;;21.19;49.21
19761;BME280;10039;42.632;23.408;2023-05-07T07:44:26;95229.34;;;21.24;49.79
19761;BME280;10039;42.632;23.408;2023-05-07T07:46:52;95189.88;;;20.45;49.27
19761;BME280;10039;42.632;23.408;2023-05-07T07:49:18;95232.75;;;21.05;49.10
19761;BME280;10039;42.632;23.408;2023-05-07T07:51:43;95221.06;;;21.53;49.12
19761;BME280;10039;42.632;23.408;2023-05-07T07:54:08;95238.09;;;22.08;48.13
19761;BME280;10039;42.632;23.408;2023-05-07T07:56:37;95232.47;;;22.37;45.92
19761;BME280;10039;42.632;23.408;2023-05-07T07:59:06;95209.06;;;22.45;45.42
19761;BME280;10039;42.632;23.408;2023-05-07T08:01:31;95224.88;;;22.71;45.89
19761;BME280;10039;42.632;23.408;2023-05-07T08:03:57;95204.06;;;22.38;45.57
19761;BME280;10039;42.632;23.408;2023-05-07T08:06:25;95232.25;;;22.66;45.97
19761;BME280;10039;42.632;23.408;2023-05-07T08:08:52;95238.94;;;22.95;45.22
19761;BME280;10039;42.632;23.408;2023-05-07T08:11:17;95210.22;;;22.94;44.62
19761;BME280;10039;42.632;23.408;2023-05-07T08:13:43;95219.84;;;23.26;45.42
19761;BME280;10039;42.632;23.408;2023-05-07T08:16:08;95219.00;;;23.51;45.76
19761;BME280;10039;42.632;23.408;2023-05-07T08:18:34;95220.56;;;23.63;44.61
19761;BME280;10039;42.632;23.408;2023-05-07T08:21:00;95229.38;;;23.47;44.10
19761;BME280;10039;42.632;23.408;2023-05-07T08:23:26;95214.53;;;23.48;44.04
19761;BME280;10039;42.632;23.408;2023-05-07T08:25:51;95205.28;;;23.82;45.16
19761;BME280;10039;42.632;23.408;2023-05-07T08:28:17;95210.38;;;24.22;43.86
19761;BME280;10039;42.632;23.408;2023-05-07T08:30:42;95210.38;;;24.22;44.54
19761;BME280;10039;42.632;23.408;2023-05-07T08:33:09;95178.31;;;24.00;43.29
19761;BME280;10039;42.632;23.408;2023-05-07T08:35:34;95186.78;;;24.24;43.49
19761;BME280;10039;42.632;23.408;2023-05-07T08:38:00;95201.75;;;24.67;42.41
19761;BME280;10039;42.632;23.408;2023-05-07T08:40:26;95209.94;;;24.73;42.12
19761;BME280;10039;42.632;23.408;2023-05-07T08:42:53;95206.44;;;24.45;41.79
19761;BME280;10039;42.632;23.408;2023-05-07T08:45:19;95203.44;;;24.37;43.25
19761;BME280;10039;42.632;23.408;2023-05-07T08:47:56;95203.00;;;24.72;41.95
19761;BME280;10039;42.632;23.408;2023-05-07T08:50:23;95196.53;;;24.75;41.67
19761;BME280;10039;42.632;23.408;2023-05-07T08:52:49;95199.53;;;24.77;42.81
19761;BME280;10039;42.632;23.408;2023-05-07T08:55:15;95192.09;;;24.94;42.54
19761;BME280;10039;42.632;23.408;2023-05-07T08:57:40;95193.34;;;24.60;41.28
19761;BME280;10039;42.632;23.408;2023-05-07T09:00:06;95188.34;;;24.86;40.20
19761;BME280;10039;42.632;23.408;2023-05-07T09:02:34;95185.13;;;25.09;38.11
19761;BME280;10039;42.632;23.408;2023-05-07T09:05:00;95187.59;;;25.23;39.32
19761;BME280;10039;42.632;23.408;2023-05-07T09:07:25;95177.44;;;24.80;38.84
19761;BME280;10039;42.632;23.408;2023-05-07T09:09:51;95168.00;;;24.81;40.39
19761;BME280;10039;42.632;23.408;2023-05-07T09:12:18;95181.91;;;25.16;37.79
19761;BME280;10039;42.632;23.408;2023-05-07T09:14:44;95176.44;;;24.78;37.63
19761;BME280;10039;42.632;23.408;2023-05-07T09:17:10;95167.97;;;25.08;39.73
19761;BME280;10039;42.632;23.408;2023-05-07T09:19:36;95164.19;;;25.33;37.39
19761;BME280;10039;42.632;23.408;2023-05-07T09:22:03;95147.56;;;25.26;36.89
19761;BME280;10039;42.632;23.408;2023-05-07T09:24:29;95169.88;;;25.46;38.72
19761;BME280;10039;42.632;23.408;2023-05-07T09:26:59;95159.03;;;25.87;37.35
19761;BME280;10039;42.632;23.408;2023-05-07T09:29:25;95146.03;;;25.47;36.83
19761;BME280;10039;42.632;23.408;2023-05-07T09:31:50;95146.47;;;25.62;39.11
19761;BME280;10039;42.632;23.408;2023-05-07T09:34:16;95150.00;;;25.46;37.46
19761;BME280;10039;42.632;23.408;2023-05-07T09:36:41;95151.41;;;25.69;37.62
19761;BME280;10039;42.632;23.408;2023-05-07T09:39:07;95152.41;;;25.66;35.12
19761;BME280;10039;42.632;23.408;2023-05-07T09:41:33;95147.75;;;25.50;36.21
19761;BME280;10039;42.632;23.408;2023-05-07T09:44:08;95142.16;;;25.15;35.30
19761;BME280;10039;42.632;23.408;2023-05-07T09:46:36;95136.94;;;25.01;36.22
19761;BME280;10039;42.632;23.408;2023-05-07T09:49:02;95142.66;;;24.86;35.95
19761;BME280;10039;42.632;23.408;2023-05-07T09:51:39;95135.94;;;24.87;37.92
19761;BME280;10039;42.632;23.408;2023-05-07T09:54:06;95138.47;;;24.69;37.12
19761;BME280;10039;42.632;23.408;2023-05-07T09:56:32;95136.50;;;24.64;36.56
19761;BME280;10039;42.632;23.408;2023-05-07T09:59:03;95132.03;;;24.61;35.66
19761;BME280;10039;42.632;23.408;2023-05-07T10:01:31;95135.47;;;24.78;37.06
19761;BME280;10039;42.632;23.408;2023-05-07T10:03:57;95097.75;;;24.38;34.63
19761;BME280;10039;42.632;23.408;2023-05-07T10:06:24;95118.09;;;24.70;35.71
19761;BME280;10039;42.632;23.408;2023-05-07T10:08:51;95131.75;;;24.64;35.10
19761;BME280;10039;42.632;23.408;2023-05-07T10:11:18;95129.75;;;24.43;35.87
19761;BME280;10039;42.632;23.408;2023-05-07T10:13:44;95130.53;;;24.60;35.88
19761;BME280;10039;42.632;23.408;2023-05-07T10:16:11;95113.41;;;24.48;34.56
19761;BME280;10039;42.632;23.408;2023-05-07T10:18:38;95112.13;;;24.44;34.89
19761;BME280;10039;42.632;23.408;2023-05-07T10:21:11;95117.59;;;24.77;35.11
19761;BME280;10039;42.632;23.408;2023-05-07T10:23:39;95081.16;;;24.52;32.95
19761;BME280;10039;42.632;23.408;2023-05-07T10:26:07;95109.41;;;24.71;33.76
19761;BME280;10039;42.632;23.408;2023-05-07T10:28:37;95100.25;;;24.58;33.39
19761;BME280;10039;42.632;23.408;2023-05-07T10:33:48;95112.44;;;24.51;34.58
19761;BME280;10039;42.632;23.408;2023-05-07T10:36:15;95081.13;;;24.30;33.92
19761;BME280;10039;42.632;23.408;2023-05-07T10:38:41;95083.38;;;24.32;34.37
19761;BME280;10039;42.632;23.408;2023-05-07T10:41:07;95086.59;;;24.08;34.15
19761;BME280;10039;42.632;23.408;2023-05-07T10:43:43;95083.34;;;24.10;34.24
19761;BME280;10039;42.632;23.408;2023-05-07T10:46:20;95084.34;;;23.96;35.60
19761;BME280;10039;42.632;23.408;2023-05-07T10:49:06;95074.44;;;24.04;37.33
19761;BME280;10039;42.632;23.408;2023-05-07T10:51:32;95098.00;;;24.29;38.15
19761;BME280;10039;42.632;23.408;2023-05-07T10:56:37;95082.56;;;24.86;36.73
19761;BME280;10039;42.632;23.408;2023-05-07T11:04:21;95084.34;;;24.73;36.95
19761;BME280;10039;42.632;23.408;2023-05-07T11:15:37;95068.72;;;24.62;35.77
19761;BME280;10039;42.632;23.408;2023-05-07T11:18:02;95068.75;;;24.57;37.53
19761;BME280;10039;42.632;23.408;2023-05-07T11:20:52;95067.50;;;24.58;36.34
19761;BME280;10039;42.632;23.408;2023-05-07T11:28:31;95063.50;;;24.15;35.72
19761;BME280;10039;42.632;23.408;2023-05-07T11:31:01;95070.47;;;24.27;35.69
19761;BME280;10039;42.632;23.408;2023-05-07T11:33:26;95063.53;;;24.37;36.00
19761;BME280;10039;42.632;23.408;2023-05-07T11:35:55;95058.81;;;24.37;36.50
19761;BME280;10039;42.632;23.408;2023-05-07T11:38:21;95058.56;;;24.52;36.48
19761;BME280;10039;42.632;23.408;2023-05-07T11:40:57;95060.78;;;24.42;35.25
19761;BME280;10039;42.632;23.408;2023-05-07T11:43:23;95046.91;;;24.51;35.33
19761;BME280;10039;42.632;23.408;2023-05-07T11:45:50;95048.41;;;24.52;35.46
19761;BME280;10039;42.632;23.408;2023-05-07T11:48:16;95047.38;;;24.66;36.09
19761;BME280;10039;42.632;23.408;2023-05-07T11:50:52;95056.28;;;24.78;34.70
19761;BME280;10039;42.632;23.408;2023-05-07T11:53:19;95054.50;;;24.97;35.63
19761;BME280;10039;42.632;23.408;2023-05-07T11:55:45;95047.81;;;24.87;34.04
19761;BME280;10039;42.632;23.408;2023-05-07T11:58:12;95059.19;;;24.96;34.78
19761;BME280;10039;42.632;23.408;2023-05-07T12:00:52;95013.56;;;24.80;34.14
19761;BME280;10039;42.632;23.408;2023-05-07T12:03:18;95046.00;;;25.05;35.62
19761;BME280;10039;42.632;23.408;2023-05-07T12:05:47;95046.50;;;25.09;34.33
19761;BME280;10039;42.632;23.408;2023-05-07T12:08:19;95033.50;;;24.59;34.35
19761;BME280;10039;42.632;23.408;2023-05-07T12:10:46;95043.13;;;24.76;34.39
19761;BME280;10039;42.632;23.408;2023-05-07T12:13:21;95025.50;;;24.77;34.76
19761;BME280;10039;42.632;23.408;2023-05-07T12:15:50;95033.44;;;24.70;34.33
19761;BME280;10039;42.632;23.408;2023-05-07T12:18:16;94998.72;;;24.70;34.91
19761;BME280;10039;42.632;23.408;2023-05-07T12:20:42;95002.97;;;24.55;34.38
19761;BME280;10039;42.632;23.408;2023-05-07T12:23:07;95026.69;;;24.93;34.99
19761;BME280;10039;42.632;23.408;2023-05-07T12:25:38;95027.97;;;24.81;33.83
19761;BME280;10039;42.632;23.408;2023-05-07T12:28:04;95002.22;;;24.54;34.54
19761;BME280;10039;42.632;23.408;2023-05-07T12:30:40;95014.81;;;24.74;34.93
19761;BME280;10039;42.632;23.408;2023-05-07T12:33:06;94998.94;;;24.83;33.92
19761;BME280;10039;42.632;23.408;2023-05-07T12:35:40;95003.31;;;24.97;33.80
19761;BME280;10039;42.632;23.408;2023-05-07T12:38:11;95008.84;;;24.81;34.15
19761;BME280;10039;42.632;23.408;2023-05-07T12:40:42;95010.53;;;24.89;34.01
19761;BME280;10039;42.632;23.408;2023-05-07T12:45:44;94997.94;;;24.70;34.75
19761;BME280;10039;42.632;23.408;2023-05-07T12:48:10;94985.78;;;24.71;34.28
19761;BME280;10039;42.632;23.408;2023-05-07T12:50:36;94988.19;;;24.96;33.99
19761;BME280;10039;42.632;23.408;2023-05-07T12:53:05;94986.44;;;24.99;34.48
19761;BME280;10039;42.632;23.408;2023-05-07T12:55:40;94979.44;;;25.14;33.71
19761;BME280;10039;42.632;23.408;2023-05-07T12:58:06;94974.97;;;25.05;33.93
19761;BME280;10039;42.632;23.408;2023-05-07T13:00:38;94971.75;;;25.07;33.25
19761;BME280;10039;42.632;23.408;2023-05-07T13:03:04;94976.19;;;25.15;32.96
19761;BME280;10039;42.632;23.408;2023-05-07T13:05:30;94975.66;;;25.22;33.24
19761;BME280;10039;42.632;23.408;2023-05-07T13:07:56;94967.72;;;25.24;33.36
19761;BME280;10039;42.632;23.408;2023-05-07T13:10:22;94965.97;;;25.21;33.18
19761;BME280;10039;42.632;23.408;2023-05-07T13:12:49;94964.97;;;25.24;32.75
19761;BME280;10039;42.632;23.408;2023-05-07T13:15:14;94960.22;;;25.30;33.14
19761;BME280;10039;42.632;23.408;2023-05-07T13:17:40;94964.53;;;25.50;32.37